createdAt,value
2024-02-10T00:00:21.858Z,10.95
2024-02-10T00:02:53.201Z,11.07
2024-02-10T00:05:24.439Z,11.06
2024-02-10T00:07:56.844Z,11.02
2024-02-10T00:10:29.258Z,10.97
2024-02-10T00:13:01.736Z,10.90
2024-02-10T00:15:33.049Z,10.83
2024-02-10T00:18:11.569Z,10.76
2024-02-10T00:20:43.709Z,10.69
2024-02-10T00:23:15.500Z,10.64
2024-02-10T00:25:46.180Z,10.57
2024-02-10T00:28:18.132Z,10.52
2024-02-10T00:30:50.108Z,10.49
2024-02-10T00:33:20.766Z,10.45
2024-02-10T00:35:51.792Z,10.42
2024-02-10T00:38:22.864Z,10.38
2024-02-10T00:40:53.779Z,10.36
2024-02-10T00:43:24.715Z,10.33
2024-02-10T00:45:59.135Z,10.29
2024-02-10T00:48:29.986Z,10.27
2024-02-10T00:51:02.224Z,10.24
2024-02-10T00:53:32.903Z,10.22
2024-02-10T00:56:03.533Z,10.20
2024-02-10T00:58:34.411Z,10.19
2024-02-10T01:01:05.428Z,10.17
2024-02-10T01:03:36.936Z,10.16
2024-02-10T01:06:10.323Z,10.15
2024-02-10T01:08:42.094Z,10.14
2024-02-10T01:11:12.883Z,10.13
2024-02-10T01:13:45.089Z,10.09
2024-02-10T01:16:17.225Z,10.07
2024-02-10T01:18:50.675Z,10.06
2024-02-10T01:21:22.519Z,10.04
2024-02-10T01:23:53.414Z,10.03
2024-02-10T01:26:24.191Z,10.01
2024-02-10T01:28:54.980Z,10.00
2024-02-10T01:31:26.747Z,9.98
2024-02-10T01:33:57.382Z,9.98
2024-02-10T01:36:30.301Z,9.98
2024-02-10T01:39:01.542Z,9.99
2024-02-10T01:41:32.369Z,9.98
2024-02-10T01:44:03.040Z,9.99
2024-02-10T01:46:34.379Z,9.99
2024-02-10T01:49:05.252Z,10.00
2024-02-10T01:51:36.415Z,10.00
2024-02-10T01:54:08.876Z,10.01
2024-02-10T01:56:40.762Z,10.02
2024-02-10T01:59:11.564Z,10.02
2024-02-10T02:01:47.124Z,10.02
2024-02-10T02:04:18.743Z,10.02
2024-02-10T02:06:50.636Z,10.03
2024-02-10T02:09:21.321Z,10.03
2024-02-10T02:11:52.534Z,10.02
2024-02-10T02:14:23.312Z,10.01
2024-02-10T02:16:54.370Z,10.02
2024-02-10T02:19:25.082Z,10.02
2024-02-10T02:21:55.769Z,10.02
2024-02-10T02:24:29.671Z,10.02
2024-02-10T02:27:01.012Z,10.02
2024-02-10T02:29:32.785Z,10.02
2024-02-10T02:32:04.278Z,10.01
2024-02-10T02:34:38.897Z,10.00
2024-02-10T02:37:09.767Z,9.98
2024-02-10T02:39:40.515Z,9.97
2024-02-10T02:42:11.697Z,9.97
2024-02-10T02:44:43.659Z,9.95
2024-02-10T02:47:14.471Z,9.93
2024-02-10T02:49:45.293Z,9.93
2024-02-10T02:52:16.174Z,9.94
2024-02-10T02:54:48.997Z,9.94
2024-02-10T02:57:19.810Z,9.95
2024-02-10T02:59:50.729Z,9.96
2024-02-10T03:02:22.505Z,9.97
2024-02-10T03:04:53.241Z,9.98
2024-02-10T03:07:24.317Z,9.98
2024-02-10T03:09:55.076Z,9.96
2024-02-10T03:12:25.833Z,9.92
2024-02-10T03:14:56.552Z,9.90
2024-02-10T03:17:31.857Z,9.88
2024-02-10T03:20:06.585Z,9.83
2024-02-10T03:22:37.980Z,9.79
2024-02-10T03:25:13.687Z,9.77
2024-02-10T03:27:45.810Z,9.76
2024-02-10T03:30:17.644Z,9.76
2024-02-10T03:32:50.159Z,9.75
2024-02-10T03:35:21.032Z,9.72
2024-02-10T03:37:51.971Z,9.70
2024-02-10T03:40:23.213Z,9.68
2024-02-10T03:42:54.072Z,9.68
2024-02-10T03:45:27.049Z,9.70
2024-02-10T03:48:06.508Z,9.73
2024-02-10T03:50:37.527Z,9.76
2024-02-10T03:53:08.446Z,9.77
2024-02-10T03:55:39.637Z,9.78
2024-02-10T03:58:13.053Z,9.78
2024-02-10T04:00:45.250Z,9.78
2024-02-10T04:03:16.008Z,9.77
2024-02-10T04:05:47.880Z,9.78
2024-02-10T04:08:20.371Z,9.79
2024-02-10T04:10:51.108Z,9.80
2024-02-10T04:13:23.055Z,9.81
2024-02-10T04:15:54.084Z,9.81
2024-02-10T04:18:29.020Z,9.82
2024-02-10T04:21:02.622Z,9.82
2024-02-10T04:23:33.773Z,9.82
2024-02-10T04:26:06.512Z,9.83
2024-02-10T04:28:37.437Z,9.82
2024-02-10T04:31:08.894Z,9.82
2024-02-10T04:33:39.829Z,9.79
2024-02-10T04:36:13.587Z,9.76
2024-02-10T04:38:44.246Z,9.72
2024-02-10T04:41:14.868Z,9.65
2024-02-10T04:43:45.558Z,9.57
2024-02-10T04:46:18.266Z,9.50
2024-02-10T04:48:49.390Z,9.43
2024-02-10T04:51:20.509Z,9.37
2024-02-10T04:53:51.228Z,9.33
2024-02-10T04:56:22.465Z,9.28
2024-02-10T04:58:53.154Z,9.27
2024-02-10T05:01:33.773Z,9.26
2024-02-10T05:04:06.411Z,9.24
2024-02-10T05:06:38.394Z,9.20
2024-02-10T05:09:09.113Z,9.15
2024-02-10T05:11:39.764Z,9.11
2024-02-10T05:14:11.841Z,9.09
2024-02-10T05:16:42.863Z,9.08
2024-02-10T05:19:16.052Z,9.08
2024-02-10T05:21:46.910Z,9.07
2024-02-10T05:24:17.480Z,9.06
2024-02-10T05:26:50.864Z,9.04
2024-02-10T05:29:21.477Z,9.01
2024-02-10T05:31:52.187Z,9.00
2024-02-10T05:34:22.941Z,9.01
2024-02-10T05:36:54.365Z,9.01
2024-02-10T05:39:25.307Z,9.01
2024-02-10T05:41:56.123Z,9.03
2024-02-10T05:44:27.820Z,9.05
2024-02-10T05:47:02.086Z,9.07
2024-02-10T05:49:35.116Z,9.08
2024-02-10T05:52:07.346Z,9.07
2024-02-10T05:54:41.710Z,9.05
2024-02-10T05:57:17.895Z,9.03
2024-02-10T05:59:49.513Z,9.00
2024-02-10T06:02:22.749Z,8.99
2024-02-10T06:04:54.243Z,8.99
2024-02-10T06:07:27.858Z,8.96
2024-02-10T06:09:58.535Z,8.95
2024-02-10T06:12:29.613Z,8.95
2024-02-10T06:15:00.331Z,8.97
2024-02-10T06:17:36.039Z,9.00
2024-02-10T06:20:14.002Z,9.04
2024-02-10T06:22:47.801Z,9.08
2024-02-10T06:25:24.127Z,9.12
2024-02-10T06:27:56.044Z,9.17
2024-02-10T06:30:31.676Z,9.20
2024-02-10T06:33:05.285Z,9.24
2024-02-10T06:35:37.967Z,9.28
2024-02-10T06:38:11.582Z,9.33
2024-02-10T06:40:44.392Z,9.36
2024-02-10T06:43:15.331Z,9.39
2024-02-10T06:45:47.546Z,9.42
2024-02-10T06:48:20.297Z,9.44
2024-02-10T06:50:53.075Z,9.47
2024-02-10T06:53:24.307Z,9.52
2024-02-10T06:55:56.431Z,9.54
2024-02-10T06:58:27.342Z,9.58
2024-02-10T07:00:59.558Z,9.60
2024-02-10T07:03:33.259Z,9.63
2024-02-10T07:06:04.519Z,9.65
2024-02-10T07:08:35.528Z,9.68
2024-02-10T07:11:06.517Z,9.71
2024-02-10T07:13:38.229Z,9.72
2024-02-10T07:16:10.112Z,9.73
2024-02-10T07:18:42.915Z,9.74
2024-02-10T07:21:13.705Z,9.76
2024-02-10T07:23:45.617Z,9.77
2024-02-10T07:26:18.128Z,9.79
2024-02-10T07:28:52.937Z,9.81
2024-02-10T07:31:23.701Z,9.84
2024-02-10T07:34:00.081Z,9.86
2024-02-10T07:36:35.499Z,9.89
2024-02-10T07:39:08.338Z,9.92
2024-02-10T07:41:40.486Z,9.94
2024-02-10T07:44:14.466Z,9.97
2024-02-10T07:46:46.411Z,9.99
2024-02-10T07:49:20.823Z,10.01
2024-02-10T07:51:52.036Z,10.02
2024-02-10T07:54:23.725Z,10.05
2024-02-10T07:56:55.971Z,10.07
2024-02-10T07:59:27.852Z,10.09
2024-02-10T08:01:58.577Z,10.11
2024-02-10T08:04:29.239Z,10.13
2024-02-10T08:07:01.367Z,10.16
2024-02-10T08:09:32.068Z,10.19
2024-02-10T08:12:04.098Z,10.22
2024-02-10T08:14:37.640Z,10.33
2024-02-10T08:17:10.501Z,10.52
2024-02-10T08:19:43.387Z,10.83
2024-02-10T08:22:15.217Z,11.17
2024-02-10T08:24:47.144Z,11.52
2024-02-10T08:27:18.573Z,11.83
2024-02-10T08:29:49.474Z,12.13
2024-02-10T08:32:20.163Z,12.39
2024-02-10T08:34:52.424Z,12.67
2024-02-10T08:37:23.602Z,13.07
2024-02-10T08:39:54.225Z,13.45
2024-02-10T08:42:26.084Z,13.64
2024-02-10T08:44:57.126Z,13.90
2024-02-10T08:47:30.396Z,14.18
2024-02-10T08:50:02.998Z,14.48
2024-02-10T08:52:33.944Z,14.62
2024-02-10T08:55:08.345Z,14.88
2024-02-10T08:57:39.178Z,15.17
2024-02-10T09:00:12.826Z,15.41
2024-02-10T09:02:46.819Z,15.63
2024-02-10T09:05:17.676Z,15.72
2024-02-10T09:07:48.456Z,15.74
2024-02-10T09:10:19.246Z,15.78
2024-02-10T09:12:50.046Z,15.79
2024-02-10T09:15:21.992Z,15.74
2024-02-10T09:17:55.268Z,15.75
2024-02-10T09:20:32.419Z,15.76
2024-02-10T09:23:05.002Z,15.71
2024-02-10T09:25:38.647Z,15.70
2024-02-10T09:28:09.660Z,15.74
2024-02-10T09:30:41.755Z,15.80
2024-02-10T09:33:23.334Z,15.73
2024-02-10T09:35:56.335Z,15.65
2024-02-10T09:38:27.977Z,15.60
2024-02-10T09:40:59.817Z,15.48
2024-02-10T09:43:34.573Z,15.47
2024-02-10T09:46:09.191Z,15.34
2024-02-10T09:48:43.161Z,15.20
2024-02-10T09:51:14.357Z,15.08
2024-02-10T09:53:45.694Z,15.01
2024-02-10T09:56:17.909Z,14.89
2024-02-10T09:58:50.605Z,14.77
2024-02-10T10:01:21.567Z,14.77
2024-02-10T10:03:52.843Z,14.77
2024-02-10T10:06:25.379Z,14.77
2024-02-10T10:08:56.402Z,14.75
2024-02-10T10:11:28.689Z,14.71
2024-02-10T10:13:59.860Z,14.54
2024-02-10T10:16:30.751Z,14.35
2024-02-10T10:19:01.811Z,14.16
2024-02-10T10:21:33.691Z,14.00
2024-02-10T10:24:04.825Z,13.86
2024-02-10T10:26:38.046Z,13.73
2024-02-10T10:29:10.936Z,13.61
2024-02-10T10:31:45.600Z,13.52
2024-02-10T10:34:17.377Z,13.45
2024-02-10T10:36:50.424Z,13.40
2024-02-10T10:39:23.882Z,13.46
2024-02-10T10:41:57.258Z,13.62
2024-02-10T10:44:28.451Z,13.77
2024-02-10T10:47:01.822Z,13.90
2024-02-10T10:49:34.025Z,13.89
2024-02-10T10:52:06.932Z,13.88
2024-02-10T10:54:40.299Z,13.91
2024-02-10T10:57:15.398Z,13.98
2024-02-10T10:59:52.350Z,14.04
2024-02-10T11:02:37.158Z,14.08
2024-02-10T11:05:17.936Z,14.10
2024-02-10T11:07:51.099Z,14.13
2024-02-10T11:10:38.878Z,14.11
2024-02-10T11:13:20.880Z,14.09
2024-02-10T11:16:01.383Z,14.01
2024-02-10T11:18:30.506Z,13.98
2024-02-10T11:21:11.677Z,13.95
2024-02-10T11:23:42.481Z,13.92
2024-02-10T11:26:14.954Z,13.90
2024-02-10T11:28:45.959Z,13.86
2024-02-10T11:31:18.964Z,13.76
2024-02-10T11:33:49.819Z,13.67
2024-02-10T11:36:21.795Z,13.59
2024-02-10T11:38:52.453Z,13.53
2024-02-10T11:41:25.346Z,13.46
2024-02-10T11:43:56.189Z,13.43
2024-02-10T11:46:30.419Z,13.42
2024-02-10T11:49:02.176Z,13.46
2024-02-10T11:51:33.349Z,13.52
2024-02-10T11:54:04.425Z,13.57
2024-02-10T11:56:35.422Z,13.60
2024-02-10T11:59:06.424Z,13.64
2024-02-10T12:01:37.970Z,13.66
2024-02-10T12:04:09.399Z,13.65
2024-02-10T12:06:40.249Z,13.66
2024-02-10T12:09:11.562Z,13.67
2024-02-10T12:11:44.190Z,13.68
2024-02-10T12:14:16.189Z,13.73
2024-02-10T12:16:47.135Z,13.78
2024-02-10T12:19:20.931Z,13.84
2024-02-10T12:21:50.492Z,13.86
2024-02-10T12:24:23.579Z,13.85
2024-02-10T12:26:54.305Z,13.82
2024-02-10T12:29:26.897Z,13.79
2024-02-10T12:31:57.724Z,13.76
2024-02-10T12:34:28.660Z,13.78
2024-02-10T12:37:00.364Z,13.84
2024-02-10T12:39:31.361Z,13.85
2024-02-10T12:42:02.565Z,13.86
2024-02-10T12:44:36.678Z,13.88
2024-02-10T12:47:11.136Z,13.87
2024-02-10T12:49:45.235Z,13.86
2024-02-10T12:52:17.770Z,13.84
2024-02-10T12:54:49.634Z,13.79
2024-02-10T12:57:21.503Z,13.76
2024-02-10T12:59:54.821Z,13.70
2024-02-10T13:02:28.058Z,13.64
2024-02-10T13:04:59.875Z,13.55
2024-02-10T13:07:31.007Z,13.51
2024-02-10T13:10:02.747Z,13.44
2024-02-10T13:12:33.985Z,13.41
2024-02-10T13:15:05.925Z,13.36
2024-02-10T13:17:37.376Z,13.32
2024-02-10T13:20:11.607Z,13.29
2024-02-10T13:22:42.659Z,13.29
2024-02-10T13:25:13.788Z,13.26
2024-02-10T13:27:46.040Z,13.25
2024-02-10T13:30:19.088Z,13.22
2024-02-10T13:32:50.555Z,13.20
2024-02-10T13:35:25.167Z,13.19
2024-02-10T13:38:15.112Z,13.17
2024-02-10T13:41:03.623Z,13.13
2024-02-10T13:43:52.418Z,13.09
2024-02-10T13:46:41.072Z,13.06
2024-02-10T13:49:29.362Z,13.02
2024-02-10T13:52:18.022Z,12.98
2024-02-10T13:55:06.514Z,12.95
2024-02-10T13:57:55.242Z,12.93
2024-02-10T14:00:31.778Z,12.91
2024-02-10T14:03:03.633Z,12.88
2024-02-10T14:05:56.384Z,12.84
2024-02-10T14:08:43.094Z,12.80
2024-02-10T14:11:21.980Z,12.76
2024-02-10T14:13:54.995Z,12.73
2024-02-10T14:16:32.063Z,12.69
2024-02-10T14:19:07.317Z,12.65
2024-02-10T14:21:39.972Z,12.62
2024-02-10T14:24:16.926Z,12.60
2024-02-10T14:27:02.280Z,12.57
2024-02-10T14:29:35.996Z,12.54
2024-02-10T14:32:14.057Z,12.51
2024-02-10T14:35:05.053Z,12.47
2024-02-10T14:37:48.079Z,12.40
2024-02-10T14:40:35.283Z,12.36
2024-02-10T14:43:06.853Z,12.33
2024-02-10T14:45:39.779Z,12.30
2024-02-10T14:48:11.032Z,12.28
2024-02-10T14:50:42.101Z,12.25
2024-02-10T14:53:13.371Z,12.22
2024-02-10T14:55:44.357Z,12.18
2024-02-10T14:58:15.637Z,12.17
2024-02-10T15:00:46.605Z,12.14
2024-02-10T15:03:18.145Z,12.13
2024-02-10T15:05:50.228Z,12.10
2024-02-10T15:08:22.015Z,12.05
2024-02-10T15:10:53.292Z,12.04
2024-02-10T15:13:25.038Z,12.03
2024-02-10T15:15:55.855Z,12.01
2024-02-10T15:18:27.690Z,12.01
2024-02-10T15:20:58.936Z,12.00
2024-02-10T15:23:29.925Z,11.98
2024-02-10T15:26:01.767Z,11.96
2024-02-10T15:28:35.468Z,11.93
2024-02-10T15:31:07.200Z,11.89
2024-02-10T15:33:38.240Z,11.86
2024-02-10T15:36:26.306Z,11.83
2024-02-10T15:39:02.426Z,11.79
2024-02-10T15:41:35.008Z,11.76
2024-02-10T15:44:09.728Z,11.72
2024-02-10T15:46:42.636Z,11.65
2024-02-10T15:49:14.275Z,11.58
2024-02-10T15:51:45.166Z,11.53
2024-02-10T15:54:15.826Z,11.49
2024-02-10T15:56:47.568Z,11.46
2024-02-10T15:59:21.312Z,11.44
2024-02-10T16:01:57.830Z,11.42
2024-02-10T16:04:28.789Z,11.39
2024-02-10T16:06:59.773Z,11.36
2024-02-10T16:09:30.579Z,11.34
2024-02-10T16:12:01.681Z,11.34
2024-02-10T16:14:32.386Z,11.34
2024-02-10T16:17:04.049Z,11.33
2024-02-10T16:19:40.964Z,11.32
2024-02-10T16:22:11.913Z,11.30
2024-02-10T16:24:44.488Z,11.27
2024-02-10T16:27:15.224Z,11.23
2024-02-10T16:29:47.023Z,11.18
2024-02-10T16:32:17.776Z,11.14
2024-02-10T16:34:54.053Z,11.10
2024-02-10T16:37:25.080Z,11.08
2024-02-10T16:39:56.071Z,11.06
2024-02-10T16:42:27.005Z,11.05
2024-02-10T16:44:58.995Z,11.04
2024-02-10T16:47:29.846Z,11.03
2024-02-10T16:50:00.762Z,11.02
2024-02-10T16:52:33.071Z,11.01
2024-02-10T16:55:04.090Z,10.99
2024-02-10T16:57:35.119Z,10.97
2024-02-10T17:00:11.924Z,10.97
2024-02-10T17:02:42.766Z,10.96
2024-02-10T17:05:19.286Z,10.95
2024-02-10T17:07:54.109Z,10.92
2024-02-10T17:10:24.989Z,10.88
2024-02-10T17:12:55.694Z,10.85
2024-02-10T17:15:26.434Z,10.82
2024-02-10T17:17:57.338Z,10.78
2024-02-10T17:20:29.854Z,10.73
2024-02-10T17:23:00.848Z,10.69
2024-02-10T17:25:33.273Z,10.66
2024-02-10T17:28:04.439Z,10.64
2024-02-10T17:30:35.880Z,10.61
2024-02-10T17:33:07.577Z,10.62
2024-02-10T17:35:38.983Z,10.63
2024-02-10T17:38:11.151Z,10.63
2024-02-10T17:40:42.399Z,10.61
2024-02-10T17:43:33.212Z,10.60
2024-02-10T17:46:04.547Z,10.59
2024-02-10T17:48:37.762Z,10.58
2024-02-10T17:51:09.147Z,10.60
2024-02-10T17:53:39.985Z,10.61
2024-02-10T17:56:13.244Z,10.62
2024-02-10T17:58:45.144Z,10.64
2024-02-10T18:01:21.497Z,10.65
2024-02-10T18:03:52.308Z,10.66
2024-02-10T18:06:24.264Z,10.66
2024-02-10T18:08:55.139Z,10.66
2024-02-10T18:11:25.844Z,10.65
2024-02-10T18:13:56.654Z,10.65
2024-02-10T18:16:28.430Z,10.66
2024-02-10T18:18:59.382Z,10.66
2024-02-10T18:21:30.135Z,10.67
2024-02-10T18:24:05.859Z,10.68
2024-02-10T18:26:38.722Z,10.69
2024-02-10T18:29:09.642Z,10.69
2024-02-10T18:31:42.132Z,10.70
2024-02-10T18:34:13.395Z,10.70
2024-02-10T18:36:46.662Z,10.71
2024-02-10T18:39:18.182Z,10.76
2024-02-10T18:41:52.024Z,10.85
2024-02-10T18:44:23.418Z,10.94
2024-02-10T18:46:54.766Z,11.03
2024-02-10T18:49:30.887Z,11.11
2024-02-10T18:52:04.678Z,11.19
2024-02-10T18:54:35.522Z,11.25
2024-02-10T18:57:11.910Z,11.26
2024-02-10T18:59:43.027Z,11.32
2024-02-10T19:02:18.531Z,11.34
2024-02-10T19:04:51.064Z,11.40
2024-02-10T19:07:22.792Z,11.43
2024-02-10T19:09:55.602Z,11.47
2024-02-10T19:12:26.315Z,11.51
2024-02-10T19:14:58.569Z,11.51
2024-02-10T19:17:29.995Z,11.52
2024-02-10T19:20:00.914Z,11.51
2024-02-10T19:22:31.976Z,11.44
2024-02-10T19:25:06.856Z,11.39
2024-02-10T19:27:39.990Z,11.37
2024-02-10T19:30:12.463Z,11.35
2024-02-10T19:32:44.440Z,11.35
2024-02-10T19:35:20.719Z,11.37
2024-02-10T19:37:52.592Z,11.39
2024-02-10T19:40:24.559Z,11.41
2024-02-10T19:42:56.264Z,11.45
2024-02-10T19:45:27.653Z,11.46
2024-02-10T19:47:59.362Z,11.44
2024-02-10T19:50:30.473Z,11.42
2024-02-10T19:53:02.788Z,11.41
2024-02-10T19:55:34.019Z,11.41
2024-02-10T19:58:04.785Z,11.44
2024-02-10T20:00:35.609Z,11.46
2024-02-10T20:03:08.041Z,11.47
2024-02-10T20:05:39.027Z,11.47
2024-02-10T20:08:10.468Z,11.49
2024-02-10T20:10:41.810Z,11.50
2024-02-10T20:13:12.617Z,11.52
2024-02-10T20:15:43.351Z,11.54
2024-02-10T20:18:14.934Z,11.56
2024-02-10T20:20:45.873Z,11.55
2024-02-10T20:23:18.175Z,11.56
2024-02-10T20:25:49.189Z,11.55
2024-02-10T20:28:19.959Z,11.51
2024-02-10T20:30:50.768Z,11.47
2024-02-10T20:33:21.667Z,11.45
2024-02-10T20:35:54.420Z,11.45
2024-02-10T20:38:25.236Z,11.42
2024-02-10T20:40:56.063Z,11.40
2024-02-10T20:43:26.798Z,11.41
2024-02-10T20:45:57.474Z,11.41
2024-02-10T20:48:28.819Z,11.37
2024-02-10T20:50:59.769Z,11.39
2024-02-10T20:53:31.066Z,11.41
2024-02-10T20:56:02.678Z,11.40
2024-02-10T20:58:34.140Z,11.41
2024-02-10T21:01:05.282Z,11.40
2024-02-10T21:03:37.704Z,11.39
2024-02-10T21:06:09.695Z,11.42
2024-02-10T21:08:46.254Z,11.46
2024-02-10T21:11:17.009Z,11.49
2024-02-10T21:13:47.948Z,11.53
2024-02-10T21:16:18.736Z,11.55
2024-02-10T21:18:50.984Z,11.55
2024-02-10T21:21:21.990Z,11.56
2024-02-10T21:23:52.655Z,11.56
2024-02-10T21:26:23.334Z,11.46
2024-02-10T21:28:56.400Z,11.42
2024-02-10T21:31:27.326Z,11.42
2024-02-10T21:33:58.309Z,11.43
2024-02-10T21:36:29.220Z,11.43
2024-02-10T21:38:59.927Z,11.42
2024-02-10T21:41:30.668Z,11.41
2024-02-10T21:44:02.297Z,11.36
2024-02-10T21:46:33.621Z,11.33
2024-02-10T21:49:04.564Z,11.30
2024-02-10T21:51:37.750Z,11.22
2024-02-10T21:54:08.923Z,11.18
2024-02-10T21:56:43.108Z,11.17
2024-02-10T21:59:17.432Z,11.15
2024-02-10T22:01:50.676Z,11.15
2024-02-10T22:04:23.588Z,11.19
2024-02-10T22:06:55.021Z,11.21
2024-02-10T22:09:28.444Z,11.20
2024-02-10T22:12:00.155Z,11.13
2024-02-10T22:14:31.043Z,11.10
2024-02-10T22:17:01.719Z,11.05
2024-02-10T22:19:32.410Z,11.00
2024-02-10T22:22:03.661Z,10.96
2024-02-10T22:24:34.431Z,10.94
2024-02-10T22:27:05.772Z,10.95
2024-02-10T22:29:36.461Z,10.95
2024-02-10T22:32:08.121Z,10.97
2024-02-10T22:34:40.045Z,10.95
2024-02-10T22:37:13.136Z,10.85
2024-02-10T22:39:44.338Z,10.80
2024-02-10T22:42:16.137Z,10.74
2024-02-10T22:44:49.063Z,10.71
2024-02-10T22:47:20.122Z,10.73
2024-02-10T22:49:53.422Z,10.74
2024-02-10T22:52:24.130Z,10.75
2024-02-10T22:54:55.607Z,10.78
2024-02-10T22:57:26.304Z,10.80
2024-02-10T22:59:57.574Z,10.76
2024-02-10T23:02:29.868Z,10.72
2024-02-10T23:05:02.862Z,10.73
2024-02-10T23:07:35.083Z,10.70
2024-02-10T23:10:07.103Z,10.64
2024-02-10T23:12:38.653Z,10.58
2024-02-10T23:15:14.718Z,10.55
2024-02-10T23:17:47.322Z,10.55
2024-02-10T23:20:18.598Z,10.57
2024-02-10T23:22:49.291Z,10.61
2024-02-10T23:25:20.376Z,10.63
2024-02-10T23:27:51.060Z,10.65
2024-02-10T23:30:21.992Z,10.62
2024-02-10T23:32:52.865Z,10.60
2024-02-10T23:35:27.370Z,10.57
2024-02-10T23:37:58.520Z,10.53
2024-02-10T23:40:29.589Z,10.55
2024-02-10T23:43:03.340Z,10.62
2024-02-10T23:45:34.426Z,10.67
2024-02-10T23:48:05.559Z,10.65
2024-02-10T23:50:36.902Z,10.64
2024-02-10T23:53:11.544Z,10.63
2024-02-10T23:55:43.930Z,10.63
2024-02-10T23:58:14.648Z,10.68
